Time;durP1;ratioP1;P1;durP2;ratioP2;P2;SDS_P1;SDS_P2;PMS_P1;PMS_P2;Temp;Humidity;BMP_temperature;BMP_pressure;BME280_temperature;BME280_humidity;BME280_pressure;Samples;Min_cycle;Max_cycle;Signal;HPM_P1;HPM_P2
2021/11/14 00:02:18;;;;;;;8;5.1;;;;;;;7.76;97.28906;936.2766;;;;
2021/11/14 00:04:46;;;;;;;5.7;4.1;;;;;;;7.76;96.80176;936.2654;;;;
2021/11/14 00:07:08;;;;;;;5.5;4.3;;;;;;;7.86;96.51758;936.2745;;;;
2021/11/14 00:09:36;;;;;;;5.5;4.3;;;;;;;7.92;96.03223;936.2573;;;;
2021/11/14 00:12:01;;;;;;;6.7;4.6;;;;;;;7.89;95.60449;936.1434;;;;
2021/11/14 00:14:27;;;;;;;6.7;4.5;;;;;;;7.87;95.78027;936.2643;;;;
2021/11/14 00:16:52;;;;;;;6.2;4.6;;;;;;;7.89;95.8877;936.2156;;;;
2021/11/14 00:19:17;;;;;;;6.7;4.5;;;;;;;7.84;95.83301;936.2449;;;;
2021/11/14 00:21:45;;;;;;;6.9;5.3;;;;;;;7.65;96.62988;936.22;;;;
2021/11/14 00:24:10;;;;;;;7.7;5.4;;;;;;;7.66;96.91504;936.1885;;;;
2021/11/14 00:26:35;;;;;;;6.1;4.4;;;;;;;7.64;96.97754;936.1969;;;;
2021/11/14 00:29:01;;;;;;;6.7;4.5;;;;;;;7.53;97.30469;936.1567;;;;
2021/11/14 00:31:28;;;;;;;6.1;4.6;;;;;;;7.49;97.83984;936.1188;;;;
2021/11/14 00:33:53;;;;;;;8.3;4.8;;;;;;;7.46;97.7998;936.1816;;;;
2021/11/14 00:36:19;;;;;;;5.8;4.2;;;;;;;7.4;98.36328;936.1638;;;;
2021/11/14 00:38:44;;;;;;;5.3;4.3;;;;;;;7.5;98.16016;936.065;;;;
2021/11/14 00:41:09;;;;;;;6.8;4.8;;;;;;;7.57;97.78906;936.1035;;;;
2021/11/14 00:43:35;;;;;;;6.7;4.8;;;;;;;7.68;97.15723;936.1358;;;;
2021/11/14 00:46:00;;;;;;;5.8;4.7;;;;;;;7.77;96.57715;936.1143;;;;
2021/11/14 00:48:28;;;;;;;8.8;5;;;;;;;7.9;95.76563;936.0643;;;;
2021/11/14 00:50:53;;;;;;;6.5;4.6;;;;;;;7.91;95.30176;936.1453;;;;
2021/11/14 00:53:19;;;;;;;6.2;4.5;;;;;;;8.02;94.74707;936.1655;;;;
2021/11/14 00:55:44;;;;;;;5.4;4.4;;;;;;;7.91;95.1543;936.1216;;;;
2021/11/14 00:58:10;;;;;;;5.7;4.6;;;;;;;7.98;94.95508;936.1583;;;;
2021/11/14 01:00:35;;;;;;;6.1;4.9;;;;;;;7.98;94.95508;936.1503;;;;
2021/11/14 01:03:00;;;;;;;5.1;4.3;;;;;;;7.94;94.73145;936.1142;;;;
2021/11/14 01:05:25;;;;;;;5.6;4.8;;;;;;;7.97;94.72363;936.1446;;;;
2021/11/14 01:07:50;;;;;;;6.1;4.5;;;;;;;7.91;95.14355;936.1747;;;;
2021/11/14 01:10:16;;;;;;;5;3.5;;;;;;;8.03;94.30859;936.1721;;;;
2021/11/14 01:12:41;;;;;;;5.1;4.2;;;;;;;8.11;94.12012;936.1795;;;;
2021/11/14 01:15:06;;;;;;;5.5;3.7;;;;;;;8.06;94.09863;936.1789;;;;
2021/11/14 01:17:31;;;;;;;4.3;3.5;;;;;;;8.11;94.21289;936.201;;;;
2021/11/14 01:19:57;;;;;;;3.9;3.3;;;;;;;8.27;93.46289;936.2203;;;;
2021/11/14 01:22:22;;;;;;;5;3.4;;;;;;;8.34;92.70605;936.1971;;;;
2021/11/14 01:24:47;;;;;;;4.4;3;;;;;;;8.31;92.9707;936.2344;;;;
2021/11/14 01:27:14;;;;;;;3.4;3;;;;;;;8.24;93.29785;936.1866;;;;
2021/11/14 01:29:38;;;;;;;6.5;3.4;;;;;;;8.41;92.6416;936.2142;;;;
2021/11/14 01:32:03;;;;;;;3.5;2.8;;;;;;;8.55;91.68262;936.1281;;;;
2021/11/14 01:34:28;;;;;;;3.3;2.5;;;;;;;8.45;92.18359;936.1639;;;;
2021/11/14 01:37:16;;;;;;;3;2.5;;;;;;;8.46;92.07422;936.0903;;;;
2021/11/14 01:39:42;;;;;;;3.9;2.8;;;;;;;8.49;91.99805;936.2097;;;;
2021/11/14 01:42:07;;;;;;;3.5;3;;;;;;;8.45;91.99219;936.1847;;;;
2021/11/14 01:44:32;;;;;;;4;3.5;;;;;;;8.36;91.9375;936.2457;;;;
2021/11/14 01:46:58;;;;;;;4.8;3.8;;;;;;;8.28;92.37598;936.1825;;;;
2021/11/14 01:49:24;;;;;;;5;4;;;;;;;8.42;91.97363;936.204;;;;
2021/11/14 01:51:49;;;;;;;5.2;3.9;;;;;;;8.35;92.09473;936.2488;;;;
2021/11/14 01:55:02;;;;;;;5.3;3.7;;;;;;;8.37;92.04199;936.1515;;;;
2021/11/14 01:57:27;;;;;;;4.2;3.5;;;;;;;8.54;91.33984;936.1548;;;;
2021/11/14 01:59:52;;;;;;;4.7;3.9;;;;;;;8.51;91.32422;936.2204;;;;
2021/11/14 02:02:18;;;;;;;4.2;3.2;;;;;;;8.45;91.84277;936.2473;;;;
2021/11/14 02:04:43;;;;;;;4.3;3.5;;;;;;;8.36;92.22168;936.2862;;;;
2021/11/14 02:07:08;;;;;;;4.8;3.8;;;;;;;8.23;93.10254;936.2103;;;;
2021/11/14 02:09:34;;;;;;;3.6;3.1;;;;;;;8.22;93.11035;936.2244;;;;
2021/11/14 02:11:58;;;;;;;6.7;3.3;;;;;;;8.16;92.96191;936.2548;;;;
2021/11/14 02:14:24;;;;;;;5.4;3.7;;;;;;;8.14;93.06055;936.2483;;;;
2021/11/14 02:16:49;;;;;;;3.5;3.2;;;;;;;8.02;93.4873;936.2195;;;;
2021/11/14 02:19:14;;;;;;;4.4;3;;;;;;;8.03;93.84277;936.2783;;;;
2021/11/14 02:21:39;;;;;;;3.1;2.5;;;;;;;8.11;93.5752;936.2762;;;;
2021/11/14 02:24:04;;;;;;;3.8;3;;;;;;;8.16;93.25781;936.2842;;;;
2021/11/14 02:26:29;;;;;;;3.8;3.1;;;;;;;8.08;93.76172;936.2727;;;;
2021/11/14 02:28:54;;;;;;;4.1;3;;;;;;;8.1;93.60938;936.2294;;;;
2021/11/14 02:31:20;;;;;;;4.4;3;;;;;;;8.22;93.45117;936.226;;;;
2021/11/14 02:33:45;;;;;;;4.1;3.1;;;;;;;8.19;93.66113;936.2014;;;;
2021/11/14 02:36:10;;;;;;;3.2;2.7;;;;;;;8.14;94.00293;936.184;;;;
2021/11/14 02:38:35;;;;;;;4.4;3;;;;;;;8.05;94.1875;936.185;;;;
2021/11/14 02:41:00;;;;;;;4;2.9;;;;;;;8.18;93.80859;936.1831;;;;
2021/11/14 02:43:25;;;;;;;3.1;2.6;;;;;;;8.22;93.4873;936.2165;;;;
2021/11/14 02:45:50;;;;;;;4.3;3.4;;;;;;;8.11;93.97266;936.1398;;;;
2021/11/14 02:48:15;;;;;;;3.7;2.9;;;;;;;8.08;94.30664;936.2426;;;;
2021/11/14 02:50:41;;;;;;;4;3.3;;;;;;;8.05;94.53906;936.2081;;;;
2021/11/14 02:53:06;;;;;;;3.5;3.1;;;;;;;8.06;94.60938;936.2065;;;;
2021/11/14 02:55:31;;;;;;;3.1;2.8;;;;;;;8.01;94.92871;936.2408;;;;
2021/11/14 02:57:56;;;;;;;3.4;3.1;;;;;;;8.06;94.80273;936.2662;;;;
2021/11/14 03:00:21;;;;;;;3;2.7;;;;;;;8.08;94.23926;936.2466;;;;
2021/11/14 03:02:46;;;;;;;3.6;2.5;;;;;;;8.1;94.39258;936.2707;;;;
2021/11/14 03:05:11;;;;;;;3.2;2.3;;;;;;;8.19;93.74023;936.2823;;;;
2021/11/14 03:07:36;;;;;;;2.4;2.1;;;;;;;8.2;93.36914;936.2238;;;;
2021/11/14 03:10:01;;;;;;;3.3;2.2;;;;;;;8.12;93.75879;936.1916;;;;
2021/11/14 03:12:26;;;;;;;2.8;2.5;;;;;;;8.14;93.49219;936.2141;;;;
2021/11/14 03:14:51;;;;;;;3;2.6;;;;;;;8.1;93.81348;936.2064;;;;
2021/11/14 03:17:16;;;;;;;3.1;2.5;;;;;;;8.07;93.49902;936.1267;;;;
2021/11/14 03:19:42;;;;;;;3.1;2.4;;;;;;;8.07;93.68066;936.1656;;;;
2021/11/14 03:22:08;;;;;;;2.8;2.4;;;;;;;8.05;93.46094;936.1891;;;;
2021/11/14 03:24:32;;;;;;;2.4;2.2;;;;;;;8.05;93.56543;936.1629;;;;
2021/11/14 03:26:58;;;;;;;2.4;2;;;;;;;8.07;93.41992;936.2147;;;;
2021/11/14 03:29:23;;;;;;;2.5;2.1;;;;;;;8.04;93.4707;936.2222;;;;
2021/11/14 03:32:04;;;;;;;2.4;2.2;;;;;;;8.06;93.17871;936.2281;;;;
2021/11/14 03:34:28;;;;;;;2.5;2;;;;;;;8.06;93.06543;936.24;;;;
2021/11/14 03:36:53;;;;;;;2.7;2;;;;;;;8.05;93.33789;936.2438;;;;
2021/11/14 03:39:18;;;;;;;3.3;2.8;;;;;;;8.06;93.37207;936.2011;;;;
2021/11/14 03:41:43;;;;;;;3.5;2.7;;;;;;;8.09;93.11719;936.2888;;;;
2021/11/14 03:44:09;;;;;;;4;2.8;;;;;;;8.01;93.4082;936.313;;;;
2021/11/14 03:46:34;;;;;;;4.4;3.3;;;;;;;7.94;94.40039;936.332;;;;
2021/11/14 03:48:59;;;;;;;5.1;3.2;;;;;;;7.91;94.56641;936.342;;;;
2021/11/14 03:51:25;;;;;;;3.5;2.9;;;;;;;7.88;94.79883;936.4247;;;;
2021/11/14 03:53:50;;;;;;;3.9;3.1;;;;;;;7.8;95.03027;936.4531;;;;
2021/11/14 03:56:15;;;;;;;3.7;3.1;;;;;;;7.91;94.97266;936.4125;;;;
2021/11/14 03:58:40;;;;;;;3.9;2.6;;;;;;;7.92;95.13379;936.43;;;;
2021/11/14 04:02:32;;;;;;;1.6;1.5;;;;;;;8.02;93.87305;936.4732;;;;
2021/11/14 04:04:56;;;;;;;3;1.8;;;;;;;7.97;94.2832;936.3929;;;;
2021/11/14 04:07:21;;;;;;;3.6;2.6;;;;;;;7.94;94.53809;936.4447;;;;
2021/11/14 04:09:47;;;;;;;4;3.2;;;;;;;7.88;94.67188;936.4469;;;;
2021/11/14 04:12:13;;;;;;;3.9;3.1;;;;;;;7.87;94.62695;936.4253;;;;
2021/11/14 04:14:39;;;;;;;4.2;3.3;;;;;;;7.82;94.8418;936.4063;;;;
2021/11/14 04:17:04;;;;;;;4.2;3.3;;;;;;;7.82;95.21387;936.403;;;;
2021/11/14 04:19:29;;;;;;;5;3.3;;;;;;;7.81;95.33691;936.4185;;;;
2021/11/14 04:21:55;;;;;;;4.7;3.5;;;;;;;7.76;95.54199;936.4225;;;;
2021/11/14 04:24:20;;;;;;;3.6;3;;;;;;;7.73;95.49121;936.4219;;;;
2021/11/14 04:26:45;;;;;;;4;3.5;;;;;;;7.69;95.59473;936.4434;;;;
2021/11/14 04:29:11;;;;;;;5.2;3.9;;;;;;;7.66;95.82617;936.4587;;;;
2021/11/14 04:31:37;;;;;;;4.1;3.4;;;;;;;7.69;95.79883;936.4481;;;;
2021/11/14 04:34:02;;;;;;;5.2;4.1;;;;;;;7.63;96.19238;936.4637;;;;
2021/11/14 04:36:28;;;;;;;5;4.1;;;;;;;7.62;96.19043;936.3923;;;;
2021/11/14 04:38:53;;;;;;;4.3;3.7;;;;;;;7.63;96.31738;936.4416;;;;
2021/11/14 04:41:19;;;;;;;4.1;3.6;;;;;;;7.7;96.01563;936.4078;;;;
2021/11/14 04:43:45;;;;;;;3.8;2.8;;;;;;;7.86;95.7002;936.4275;;;;
2021/11/14 04:46:10;;;;;;;3.2;2.5;;;;;;;7.82;95.94043;936.3777;;;;
2021/11/14 04:48:35;;;;;;;3.5;2.3;;;;;;;7.87;95.58887;936.4135;;;;
2021/11/14 04:51:00;;;;;;;2.2;1.6;;;;;;;7.88;95.36426;936.4238;;;;
2021/11/14 04:56:49;;;;;;;3.5;1.9;;;;;;;7.74;96.10547;936.4704;;;;
2021/11/14 04:59:14;;;;;;;1.9;1.8;;;;;;;7.8;95.81348;936.481;;;;
2021/11/14 05:01:39;;;;;;;2.5;2.2;;;;;;;7.84;95.27441;936.5151;;;;
2021/11/14 05:04:04;;;;;;;4.3;2.5;;;;;;;7.77;95.43066;936.486;;;;
2021/11/14 05:06:29;;;;;;;3.2;2.2;;;;;;;7.74;95.55859;936.483;;;;
2021/11/14 05:08:54;;;;;;;2.9;2.6;;;;;;;7.72;95.79492;936.4756;;;;
2021/11/14 05:11:19;;;;;;;4.1;2.6;;;;;;;7.68;96.0918;936.5708;;;;
2021/11/14 05:13:45;;;;;;;3.2;2.8;;;;;;;7.63;96.45313;936.5605;;;;
2021/11/14 05:16:10;;;;;;;3.9;2.9;;;;;;;7.72;96.33984;936.5343;;;;
2021/11/14 05:19:12;;;;;;;4.6;2.5;;;;;;;7.76;96.10938;936.5151;;;;
2021/11/14 05:21:38;;;;;;;3.6;2.6;;;;;;;7.74;95.92383;936.5323;;;;
2021/11/14 05:24:03;;;;;;;3.5;2.7;;;;;;;7.78;95.93164;936.567;;;;
2021/11/14 05:26:28;;;;;;;3.5;2.3;;;;;;;7.81;96.04004;936.5653;;;;
2021/11/14 05:28:53;;;;;;;3.4;2.6;;;;;;;7.84;95.75293;936.5105;;;;
2021/11/14 05:31:20;;;;;;;1.7;1.6;;;;;;;7.91;95.32715;936.5767;;;;
2021/11/14 05:33:45;;;;;;;1.7;1.6;;;;;;;7.97;95.25977;936.618;;;;
2021/11/14 05:36:11;;;;;;;1.5;1.2;;;;;;;8.02;94.76953;936.6286;;;;
2021/11/14 05:38:37;;;;;;;1.3;1.2;;;;;;;7.98;94.76367;936.6555;;;;
2021/11/14 05:41:01;;;;;;;1.3;1.2;;;;;;;7.92;94.39648;936.6306;;;;
2021/11/14 05:43:26;;;;;;;1.4;1.3;;;;;;;7.84;95.36719;936.6342;;;;
2021/11/14 05:45:52;;;;;;;1.5;1.4;;;;;;;7.86;95.04199;936.6741;;;;
2021/11/14 05:48:17;;;;;;;2.3;1.5;;;;;;;7.84;94.62988;936.6896;;;;
2021/11/14 05:50:42;;;;;;;1.5;1.2;;;;;;;7.71;94.05566;936.6886;;;;
2021/11/14 05:53:09;;;;;;;1.5;1.3;;;;;;;7.74;94.63086;936.6067;;;;
2021/11/14 05:55:32;;;;;;;1.8;0.9;;;;;;;7.79;94.48438;936.7574;;;;
2021/11/14 05:58:00;;;;;;;1.3;1;;;;;;;7.8;93.58984;936.6981;;;;
2021/11/14 06:00:47;;;;;;;0.9;0.7;;;;;;;7.78;93.43652;936.6835;;;;
2021/11/14 06:03:08;;;;;;;2.3;0.7;;;;;;;7.74;92.47559;936.7724;;;;
2021/11/14 06:05:34;;;;;;;1;0.8;;;;;;;7.77;92.69922;936.8063;;;;
2021/11/14 06:07:55;;;;;;;0.7;0.5;;;;;;;7.76;92.11426;936.7291;;;;
2021/11/14 06:10:21;;;;;;;1.1;0.8;;;;;;;7.81;92.31934;936.8047;;;;
2021/11/14 06:12:46;;;;;;;0.8;0.8;;;;;;;7.86;92.76172;936.8644;;;;
2021/11/14 06:15:11;;;;;;;0.7;0.7;;;;;;;7.72;93.18457;936.8892;;;;
2021/11/14 06:17:36;;;;;;;0.5;0.5;;;;;;;7.68;93.89063;936.8918;;;;
2021/11/14 06:20:01;;;;;;;0.5;0.5;;;;;;;7.69;93.47559;936.9269;;;;
2021/11/14 06:22:26;;;;;;;0.5;0.4;;;;;;;7.6;93.21582;936.9391;;;;
2021/11/14 06:24:53;;;;;;;0.9;0.8;;;;;;;7.5;93.65918;936.8445;;;;
2021/11/14 06:27:18;;;;;;;0.7;0.6;;;;;;;7.47;94.42383;936.9036;;;;
2021/11/14 06:29:43;;;;;;;1.8;0.7;;;;;;;7.46;93.88672;936.9357;;;;
2021/11/14 06:32:08;;;;;;;0.5;0.4;;;;;;;7.32;94.74316;936.9431;;;;
2021/11/14 06:34:33;;;;;;;1.1;0.7;;;;;;;7.38;94.66211;936.9981;;;;
2021/11/14 06:36:58;;;;;;;0.6;0.6;;;;;;;7.23;94.31348;937.0086;;;;
2021/11/14 06:39:23;;;;;;;0.5;0.5;;;;;;;7.08;93.5;937.0276;;;;
2021/11/14 06:41:48;;;;;;;0.4;0.3;;;;;;;7.26;93.77539;937.0061;;;;
2021/11/14 06:44:13;;;;;;;0.3;0.3;;;;;;;7.33;92.95313;937.0574;;;;
2021/11/14 06:46:38;;;;;;;2.4;2.1;;;;;;;7.21;93.99219;936.9972;;;;
2021/11/14 06:49:04;;;;;;;1.5;1.4;;;;;;;7.23;93.93945;937.0206;;;;
2021/11/14 06:51:29;;;;;;;0.9;0.9;;;;;;;7.37;93.4834;937.0739;;;;
2021/11/14 06:53:55;;;;;;;1.1;0.9;;;;;;;7.48;93.18848;937.0644;;;;
2021/11/14 06:56:21;;;;;;;1.2;1;;;;;;;7.54;93.18066;937.0751;;;;
2021/11/14 06:58:46;;;;;;;1.3;1.2;;;;;;;7.52;93.54883;937.1127;;;;
2021/11/14 07:01:11;;;;;;;1.6;1.4;;;;;;;7.45;93.61523;937.1542;;;;
2021/11/14 07:03:36;;;;;;;2.3;2.1;;;;;;;7.33;93.67969;937.147;;;;
2021/11/14 07:06:01;;;;;;;0.5;0.5;;;;;;;7.31;93.24316;937.1149;;;;
2021/11/14 07:08:26;;;;;;;0.7;0.7;;;;;;;7.43;92.83984;937.2181;;;;
2021/11/14 07:10:52;;;;;;;0.7;0.7;;;;;;;7.55;92.27637;937.218;;;;
2021/11/14 07:13:17;;;;;;;1;1;;;;;;;7.62;92.4502;937.18;;;;
2021/11/14 07:15:45;;;;;;;2.1;1.9;;;;;;;7.66;93.21582;937.2098;;;;
2021/11/14 07:18:10;;;;;;;1.2;1.1;;;;;;;7.66;93.72656;937.2226;;;;
2021/11/14 07:20:35;;;;;;;1.2;1.1;;;;;;;7.77;92.59473;937.2302;;;;
2021/11/14 07:23:00;;;;;;;1.7;1.6;;;;;;;7.77;92.7666;937.2358;;;;
2021/11/14 07:25:25;;;;;;;0.4;0.4;;;;;;;7.8;92.75;937.2894;;;;
2021/11/14 07:27:51;;;;;;;1.9;0.6;;;;;;;7.76;93.2959;937.2347;;;;
2021/11/14 07:30:16;;;;;;;1.9;1.3;;;;;;;7.75;93.44141;937.2371;;;;
2021/11/14 07:32:41;;;;;;;0.7;0.7;;;;;;;7.39;93.64648;937.2668;;;;
2021/11/14 07:35:06;;;;;;;0.9;0.8;;;;;;;7.54;92.73926;937.3066;;;;
2021/11/14 07:37:31;;;;;;;1;0.6;;;;;;;7.73;92.38281;937.3112;;;;
2021/11/14 07:39:57;;;;;;;2.1;1.9;;;;;;;7.78;92.18848;937.3184;;;;
2021/11/14 07:42:22;;;;;;;13.7;7.9;;;;;;;7.81;91.93359;937.3557;;;;
2021/11/14 07:44:47;;;;;;;50.1;28.7;;;;;;;7.82;92.08496;937.3694;;;;
2021/11/14 07:47:13;;;;;;;49.7;31.7;;;;;;;7.93;92.5957;937.3649;;;;
2021/11/14 07:49:37;;;;;;;7.2;5.4;;;;;;;8.01;92.03418;937.3198;;;;
2021/11/14 07:52:02;;;;;;;1.8;1.5;;;;;;;8.02;91.85254;937.3492;;;;
2021/11/14 07:54:28;;;;;;;1.1;0.8;;;;;;;8.08;91.49121;937.3107;;;;
2021/11/14 07:56:54;;;;;;;0.9;0.6;;;;;;;8.15;90.8125;937.3016;;;;
2021/11/14 07:59:19;;;;;;;0.7;0.7;;;;;;;8.21;91.58887;937.3212;;;;
2021/11/14 08:01:45;;;;;;;1.3;1.2;;;;;;;8.33;91.29688;937.3223;;;;
2021/11/14 08:04:10;;;;;;;2.9;2.2;;;;;;;8.42;90.65527;937.2863;;;;
2021/11/14 08:06:35;;;;;;;3.4;2.4;;;;;;;8.46;91.42676;937.2695;;;;
2021/11/14 08:09:00;;;;;;;1.9;1.8;;;;;;;8.57;91.6084;937.2147;;;;
2021/11/14 08:11:27;;;;;;;1.8;1.7;;;;;;;8.74;90.21094;937.2207;;;;
2021/11/14 08:13:51;;;;;;;1.7;1.6;;;;;;;8.84;88.49316;937.2408;;;;
2021/11/14 08:16:29;;;;;;;1.3;1.2;;;;;;;8.83;88.10254;937.2088;;;;
2021/11/14 08:18:54;;;;;;;1.3;1.2;;;;;;;8.98;86.99609;937.1965;;;;
2021/11/14 08:21:23;;;;;;;1.7;1.5;;;;;;;9.07;86.52539;937.1948;;;;
2021/11/14 08:23:48;;;;;;;1.7;1.2;;;;;;;9.09;87.29004;937.149;;;;
2021/11/14 08:26:13;;;;;;;2.5;1.9;;;;;;;9.01;84.93164;937.1131;;;;
2021/11/14 08:28:38;;;;;;;2;1.8;;;;;;;9.07;86.0459;937.1249;;;;
2021/11/14 08:31:04;;;;;;;1.9;1.7;;;;;;;9.13;85.17285;937.1321;;;;
2021/11/14 08:33:30;;;;;;;2.2;1.4;;;;;;;8.81;85.15332;937.1347;;;;
2021/11/14 08:35:54;;;;;;;1.2;1;;;;;;;8.55;86.75;937.1287;;;;
2021/11/14 08:38:19;;;;;;;1;0.9;;;;;;;8.78;85.49902;937.1594;;;;
2021/11/14 08:40:44;;;;;;;1.6;1.1;;;;;;;8.92;85.83691;937.2308;;;;
2021/11/14 08:43:13;;;;;;;2.6;1.7;;;;;;;8.84;83.2959;937.2153;;;;
2021/11/14 08:45:37;;;;;;;2.5;2;;;;;;;8.95;85.66016;937.2303;;;;
2021/11/14 08:48:03;;;;;;;2.6;2;;;;;;;8.86;84.11621;937.2385;;;;
2021/11/14 08:50:29;;;;;;;2.9;2.1;;;;;;;8.87;85.40527;937.2642;;;;
2021/11/14 08:52:55;;;;;;;3.5;2.5;;;;;;;9.07;85.72852;937.2656;;;;
2021/11/14 08:55:20;;;;;;;3.6;2.8;;;;;;;9.38;85.02734;937.2411;;;;
2021/11/14 08:57:45;;;;;;;4.3;2.7;;;;;;;9.43;85.66406;937.2611;;;;
2021/11/14 09:00:10;;;;;;;5.3;3.2;;;;;;;9.6;84.48828;937.2544;;;;
2021/11/14 09:02:37;;;;;;;2.9;2.6;;;;;;;9.72;82.69043;937.1526;;;;
2021/11/14 09:05:02;;;;;;;2.7;2.2;;;;;;;9.72;83.48828;937.1749;;;;
2021/11/14 09:07:27;;;;;;;3.1;2.3;;;;;;;9.66;82.8623;937.2123;;;;
2021/11/14 09:09:52;;;;;;;2.9;1.8;;;;;;;9.8;81.82813;937.2545;;;;
2021/11/14 09:12:17;;;;;;;3.2;2.2;;;;;;;9.75;83.26563;937.1943;;;;
2021/11/14 09:14:43;;;;;;;2.5;2;;;;;;;9.89;82.49512;937.2087;;;;
2021/11/14 09:17:08;;;;;;;2.3;2;;;;;;;9.92;80.70996;937.1692;;;;
2021/11/14 09:19:33;;;;;;;2.4;2;;;;;;;9.79;81.24512;937.1836;;;;
2021/11/14 09:21:58;;;;;;;3.4;2.4;;;;;;;9.97;80.86719;937.2095;;;;
2021/11/14 09:24:23;;;;;;;2.8;2.3;;;;;;;10;80.46289;937.1382;;;;
2021/11/14 09:26:48;;;;;;;3;2.5;;;;;;;10.06;80.08691;937.0684;;;;
2021/11/14 09:29:14;;;;;;;2.4;2.2;;;;;;;10.17;79.83301;937.1656;;;;
2021/11/14 09:31:38;;;;;;;2.7;2.3;;;;;;;10.15;80.14941;937.1686;;;;
2021/11/14 09:34:05;;;;;;;3.2;2.3;;;;;;;10.33;80.22852;937.127;;;;
2021/11/14 09:36:32;;;;;;;2.6;2.2;;;;;;;10.36;80.45996;937.139;;;;
2021/11/14 09:38:55;;;;;;;2.3;2.1;;;;;;;10.29;78.64746;937.133;;;;
2021/11/14 09:41:23;;;;;;;3;2.2;;;;;;;10.28;78.43848;937.1647;;;;
2021/11/14 09:43:49;;;;;;;2.4;2.1;;;;;;;10.18;78.50977;937.1345;;;;
2021/11/14 09:46:14;;;;;;;2.8;2.1;;;;;;;10.19;79.7002;937.1418;;;;
2021/11/14 09:48:39;;;;;;;1.8;1.7;;;;;;;10.35;79.10156;937.0588;;;;
2021/11/14 09:51:04;;;;;;;1.7;1.5;;;;;;;10.58;79.31445;937.0822;;;;
2021/11/14 09:53:29;;;;;;;2.3;1.9;;;;;;;10.84;78.6543;937.11;;;;
2021/11/14 09:55:54;;;;;;;1.8;1.7;;;;;;;10.73;78.8877;937.0947;;;;
2021/11/14 09:58:21;;;;;;;1.9;1.8;;;;;;;10.87;78.20215;937.0656;;;;
2021/11/14 10:00:45;;;;;;;1.5;1.3;;;;;;;10.63;78.75391;937.0812;;;;
2021/11/14 10:03:10;;;;;;;1.9;1.7;;;;;;;10.65;79.85352;937.1149;;;;
2021/11/14 10:05:36;;;;;;;2.6;2.4;;;;;;;10.52;79.39453;937.0953;;;;
2021/11/14 10:08:02;;;;;;;3.2;2.6;;;;;;;10.25;80.61328;937.0212;;;;
2021/11/14 10:10:25;;;;;;;3;2.7;;;;;;;10.12;81.7627;937.0465;;;;
2021/11/14 10:12:50;;;;;;;3;2.5;;;;;;;10.05;82.27344;937.053;;;;
2021/11/14 10:15:16;;;;;;;2.7;2.2;;;;;;;10.04;82.97852;937.0227;;;;
2021/11/14 10:17:41;;;;;;;4;2.3;;;;;;;9.99;83.40137;937.0761;;;;
2021/11/14 10:20:06;;;;;;;2.7;2.3;;;;;;;9.86;83.7207;937.0399;;;;
2021/11/14 10:22:31;;;;;;;2.8;2.3;;;;;;;9.79;84.36816;936.9958;;;;
2021/11/14 10:24:56;;;;;;;2.2;1.8;;;;;;;9.6;84.80957;936.9451;;;;
2021/11/14 10:27:21;;;;;;;2.1;1.7;;;;;;;9.59;85.14941;936.9656;;;;
2021/11/14 10:29:47;;;;;;;4.1;1.5;;;;;;;9.5;84.84668;937.0053;;;;
2021/11/14 10:32:15;;;;;;;0.7;0.7;;;;;;;9.27;84.41406;936.9792;;;;
2021/11/14 10:34:37;;;;;;;1.1;1;;;;;;;9.11;86.39648;936.9984;;;;
2021/11/14 10:37:02;;;;;;;0.9;0.9;;;;;;;9.03;86.85938;936.968;;;;
2021/11/14 10:39:27;;;;;;;0.9;0.9;;;;;;;9.08;86.60645;936.9655;;;;
2021/11/14 10:41:52;;;;;;;1.4;1.3;;;;;;;9.07;87.6543;936.921;;;;
2021/11/14 10:44:18;;;;;;;1.5;1.2;;;;;;;9.14;86.59473;936.9447;;;;
2021/11/14 10:46:43;;;;;;;1.1;1;;;;;;;9.04;87.17773;936.9697;;;;
2021/11/14 10:49:08;;;;;;;1;0.8;;;;;;;9.06;86.1709;936.9827;;;;
2021/11/14 10:51:34;;;;;;;0.9;0.9;;;;;;;8.92;87.24512;936.8979;;;;
2021/11/14 10:53:58;;;;;;;1.2;1.1;;;;;;;9.08;86.82324;936.9512;;;;
2021/11/14 10:56:23;;;;;;;1.4;1.3;;;;;;;9.19;86.67383;936.9455;;;;
2021/11/14 10:58:48;;;;;;;1;1;;;;;;;9.23;86.61328;936.9628;;;;
2021/11/14 11:01:22;;;;;;;0.7;0.7;;;;;;;9.41;85.83105;936.9824;;;;
2021/11/14 11:03:41;;;;;;;0.6;0.6;;;;;;;9.53;85.18262;936.9436;;;;
2021/11/14 11:06:06;;;;;;;0.7;0.7;;;;;;;9.61;84.91406;936.907;;;;
2021/11/14 11:08:31;;;;;;;0.9;0.7;;;;;;;9.58;84.70313;936.8718;;;;
2021/11/14 11:10:57;;;;;;;0.8;0.8;;;;;;;9.41;84.70215;936.9387;;;;
2021/11/14 11:13:22;;;;;;;0.9;0.8;;;;;;;9.36;85.19434;936.8889;;;;
2021/11/14 11:15:47;;;;;;;0.7;0.7;;;;;;;9.41;86.00195;936.9359;;;;
2021/11/14 11:18:13;;;;;;;1.1;1;;;;;;;9.32;85.90234;936.9305;;;;
2021/11/14 11:20:38;;;;;;;1.4;1.2;;;;;;;9.3;86.08301;936.9788;;;;
2021/11/14 11:23:07;;;;;;;2.3;1.7;;;;;;;9.24;86.73047;936.948;;;;
2021/11/14 11:25:30;;;;;;;2.1;1.7;;;;;;;9.07;87.52637;936.9478;;;;
2021/11/14 11:27:55;;;;;;;1.5;1.4;;;;;;;9.02;88.28906;936.921;;;;
2021/11/14 11:30:21;;;;;;;2.8;1.6;;;;;;;8.93;89.30566;936.8878;;;;
2021/11/14 11:32:46;;;;;;;2.4;1.6;;;;;;;8.8;90.05273;936.9698;;;;
2021/11/14 11:35:11;;;;;;;1.7;1.5;;;;;;;8.8;91.00879;936.9072;;;;
2021/11/14 11:37:36;;;;;;;3.8;2.2;;;;;;;8.76;91.14648;936.9019;;;;
2021/11/14 11:40:05;;;;;;;2.9;2.1;;;;;;;8.8;90.54199;936.9763;;;;
2021/11/14 11:42:26;;;;;;;3.3;2.2;;;;;;;9.01;89.91504;936.9119;;;;
2021/11/14 11:44:55;;;;;;;3;2.3;;;;;;;9.13;89.64551;937.0137;;;;
2021/11/14 11:47:18;;;;;;;3.4;2.2;;;;;;;9.2;89.30566;937.0129;;;;
2021/11/14 11:49:42;;;;;;;3.4;2.7;;;;;;;9.15;89.66211;936.9521;;;;
2021/11/14 11:52:08;;;;;;;2.1;1.8;;;;;;;9.19;89.21289;936.9009;;;;
2021/11/14 11:54:33;;;;;;;2.3;1.9;;;;;;;9.21;88.21484;936.9387;;;;
2021/11/14 11:56:58;;;;;;;2.9;2.2;;;;;;;9.31;88.31641;936.9924;;;;
2021/11/14 11:59:23;;;;;;;3.7;2.2;;;;;;;9.08;88.79199;936.9822;;;;
2021/11/14 12:01:48;;;;;;;3.5;2.2;;;;;;;8.99;89.25098;937.0125;;;;
2021/11/14 12:04:13;;;;;;;2.6;2.2;;;;;;;9.12;89.03809;937.0192;;;;
2021/11/14 12:06:38;;;;;;;2.5;2.2;;;;;;;9.14;88.87109;936.9487;;;;
2021/11/14 12:09:03;;;;;;;3.4;2.4;;;;;;;9.1;88.80664;937.0038;;;;
2021/11/14 12:11:31;;;;;;;2.9;2.5;;;;;;;8.97;89.91797;936.9875;;;;
2021/11/14 12:13:54;;;;;;;3.2;2.7;;;;;;;9.06;89.90137;937.0463;;;;
2021/11/14 12:16:19;;;;;;;3.3;2.6;;;;;;;9.12;89.71191;936.9016;;;;
2021/11/14 12:18:44;;;;;;;3.9;2.8;;;;;;;9.24;89.37207;936.9249;;;;
2021/11/14 12:21:09;;;;;;;4.7;3.1;;;;;;;9.38;88.27246;936.8867;;;;
2021/11/14 12:23:36;;;;;;;5;3.1;;;;;;;9.41;87.57227;936.9562;;;;
2021/11/14 12:25:59;;;;;;;4.3;3.2;;;;;;;9.48;87.30371;936.9899;;;;
2021/11/14 12:28:24;;;;;;;3.6;2.9;;;;;;;9.43;87.50879;936.9774;;;;
2021/11/14 12:30:49;;;;;;;5.2;3.5;;;;;;;9.5;87.46484;936.9495;;;;
2021/11/14 12:33:14;;;;;;;5;3.6;;;;;;;9.55;87.07715;936.9947;;;;
2021/11/14 12:35:42;;;;;;;5.4;3.3;;;;;;;9.54;87.14355;936.9731;;;;
2021/11/14 12:38:04;;;;;;;4.5;3.4;;;;;;;9.6;87.08789;937.0294;;;;
2021/11/14 12:40:30;;;;;;;4.5;3.5;;;;;;;9.49;87.11035;937.0449;;;;
2021/11/14 12:42:55;;;;;;;5.1;3.7;;;;;;;9.26;87.96387;937.0499;;;;
2021/11/14 12:45:20;;;;;;;5.6;4.2;;;;;;;9.13;88.91699;937.0209;;;;
2021/11/14 12:47:46;;;;;;;5.9;4.3;;;;;;;8.99;89.96777;937.0132;;;;
2021/11/14 12:50:12;;;;;;;6;4.2;;;;;;;8.91;90.75879;937.0622;;;;
2021/11/14 12:52:35;;;;;;;6.7;4.5;;;;;;;8.9;91.37109;937.1375;;;;
2021/11/14 12:55:01;;;;;;;6.2;4.6;;;;;;;9.04;91.0127;937.1301;;;;
2021/11/14 12:57:26;;;;;;;6.4;4.7;;;;;;;9.07;90.34668;937.1281;;;;
2021/11/14 12:59:55;;;;;;;7.5;4.6;;;;;;;9.1;90.00391;937.1222;;;;
2021/11/14 13:02:17;;;;;;;6;4.5;;;;;;;9.18;89.81348;937.1573;;;;
2021/11/14 13:04:42;;;;;;;6.3;4.6;;;;;;;9.21;89.66211;937.1922;;;;
2021/11/14 13:07:07;;;;;;;6.7;5;;;;;;;9.17;89.56152;937.2764;;;;
2021/11/14 13:09:38;;;;;;;7.3;5.1;;;;;;;9.22;89.52734;937.2678;;;;
2021/11/14 13:11:58;;;;;;;6.2;4.9;;;;;;;9.2;89.7041;937.2633;;;;
2021/11/14 13:14:23;;;;;;;7.3;5.7;;;;;;;9.26;89.51172;937.3231;;;;
2021/11/14 13:16:48;;;;;;;8.2;6.1;;;;;;;9.12;89.83496;937.3304;;;;
2021/11/14 13:19:13;;;;;;;9.3;6.5;;;;;;;9.17;89.91406;937.3709;;;;
2021/11/14 13:21:39;;;;;;;9.2;6.6;;;;;;;9.12;90.04199;937.3823;;;;
2021/11/14 13:24:07;;;;;;;9.6;6.7;;;;;;;8.86;91.5791;937.3212;;;;
2021/11/14 13:26:30;;;;;;;9.7;7;;;;;;;9.05;90.93457;937.3947;;;;
2021/11/14 13:28:54;;;;;;;11.2;7.5;;;;;;;9.21;90.18555;937.3925;;;;
2021/11/14 13:31:19;;;;;;;10.3;7.7;;;;;;;9.24;89.96387;937.3674;;;;
2021/11/14 13:33:44;;;;;;;10;7;;;;;;;9.14;90.41895;937.2935;;;;
2021/11/14 13:36:09;;;;;;;7.2;5.4;;;;;;;9.18;89.92773;937.3527;;;;
2021/11/14 13:38:35;;;;;;;7.8;5.7;;;;;;;9.24;89.9502;937.4246;;;;
2021/11/14 13:41:00;;;;;;;6.5;5.2;;;;;;;9.3;88.90625;937.4261;;;;
2021/11/14 13:43:25;;;;;;;7.4;5.1;;;;;;;9.32;88.33887;937.4319;;;;
2021/11/14 13:45:54;;;;;;;7.3;5.2;;;;;;;9.3;88.65625;937.3499;;;;
2021/11/14 13:48:17;;;;;;;8;5.5;;;;;;;9.34;88.7207;937.4124;;;;
2021/11/14 13:50:42;;;;;;;8.7;6.6;;;;;;;9.34;88.60645;937.4346;;;;
2021/11/14 13:53:07;;;;;;;21.7;14;;;;;;;9.01;89.23242;937.4666;;;;
2021/11/14 13:55:32;;;;;;;24.8;15.6;;;;;;;8.9;90.08496;937.4153;;;;
2021/11/14 13:57:57;;;;;;;30.2;18.3;;;;;;;8.93;89.90918;937.4572;;;;
2021/11/14 14:00:22;;;;;;;26.7;17.3;;;;;;;8.83;90.12695;937.4056;;;;
2021/11/14 14:02:47;;;;;;;30.2;19.8;;;;;;;8.68;90.6084;937.3818;;;;
2021/11/14 14:05:13;;;;;;;29.1;18.4;;;;;;;8.63;91.17871;937.4835;;;;
2021/11/14 14:07:38;;;;;;;30.8;19.2;;;;;;;8.78;90.67285;937.4562;;;;
2021/11/14 14:10:03;;;;;;;30.1;19.8;;;;;;;8.8;90.29199;937.5066;;;;
2021/11/14 14:12:28;;;;;;;32.6;21;;;;;;;8.71;90.40918;937.4188;;;;
2021/11/14 14:14:55;;;;;;;33.6;20.7;;;;;;;8.64;90.55371;937.5248;;;;
2021/11/14 14:17:18;;;;;;;34.2;21.8;;;;;;;8.68;90.72168;937.5255;;;;
2021/11/14 14:19:44;;;;;;;32;21.3;;;;;;;8.69;90.54199;937.4994;;;;
2021/11/14 14:22:10;;;;;;;36;21.4;;;;;;;8.61;90.30957;937.5854;;;;
2021/11/14 14:24:35;;;;;;;38.9;23;;;;;;;8.52;90.80176;937.5608;;;;
2021/11/14 14:27:03;;;;;;;38.3;23.4;;;;;;;8.51;90.62891;937.5868;;;;
2021/11/14 14:29:27;;;;;;;40.3;23;;;;;;;8.24;91.31055;937.5811;;;;
2021/11/14 14:31:51;;;;;;;40.9;24.2;;;;;;;8.28;91.62695;937.634;;;;
2021/11/14 14:34:16;;;;;;;40.3;23.2;;;;;;;8.35;91.37891;937.6728;;;;